sensor_id;sensor_type;location;lat;lon;timestamp;P1;P2;P0
66155;PMS5003;52957;50.848;20.656;2024-03-23T01:00:03;122;110;64
66155;PMS5003;52957;50.848;20.656;2024-03-23T01:10:06;90;81;45
66155;PMS5003;52957;50.848;20.656;2024-03-23T01:20:17;90;81;45
66155;PMS5003;52957;50.848;20.656;2024-03-23T01:30:08;90;81;45
66155;PMS5003;52957;50.848;20.656;2024-03-23T01:40:05;81;81;38
66155;PMS5003;52957;50.848;20.656;2024-03-23T01:50:11;81;81;38
66155;PMS5003;52957;50.848;20.656;2024-03-23T02:00:04;81;81;38
66155;PMS5003;52957;50.848;20.656;2024-03-23T02:10:16;87;79;41
66155;PMS5003;52957;50.848;20.656;2024-03-23T02:20:06;87;79;41
66155;PMS5003;52957;50.848;20.656;2024-03-23T02:30:04;87;79;41
66155;PMS5003;52957;50.848;20.656;2024-03-23T02:40:09;94;80;45
66155;PMS5003;52957;50.848;20.656;2024-03-23T02:50:05;94;80;45
66155;PMS5003;52957;50.848;20.656;2024-03-23T03:00:07;94;80;45
66155;PMS5003;52957;50.848;20.656;2024-03-23T03:10:13;96;86;45
66155;PMS5003;52957;50.848;20.656;2024-03-23T03:20:18;96;86;45
66155;PMS5003;52957;50.848;20.656;2024-03-23T03:30:17;96;86;45
66155;PMS5003;52957;50.848;20.656;2024-03-23T03:40:15;97;87;48
66155;PMS5003;52957;50.848;20.656;2024-03-23T03:50:08;97;87;48
66155;PMS5003;52957;50.848;20.656;2024-03-23T04:00:16;97;87;48
66155;PMS5003;52957;50.848;20.656;2024-03-23T04:10:09;84;70;39
66155;PMS5003;52957;50.848;20.656;2024-03-23T04:20:18;84;70;39
66155;PMS5003;52957;50.848;20.656;2024-03-23T04:30:13;84;70;39
66155;PMS5003;52957;50.848;20.656;2024-03-23T04:40:16;96;78;45
66155;PMS5003;52957;50.848;20.656;2024-03-23T04:50:12;96;78;45
66155;PMS5003;52957;50.848;20.656;2024-03-23T05:00:26;96;78;45
66155;PMS5003;52957;50.848;20.656;2024-03-23T05:10:06;123;102;56
66155;PMS5003;52957;50.848;20.656;2024-03-23T05:20:10;123;102;56
66155;PMS5003;52957;50.848;20.656;2024-03-23T05:30:13;123;102;56
66155;PMS5003;52957;50.848;20.656;2024-03-23T05:40:18;119;102;60
66155;PMS5003;52957;50.848;20.656;2024-03-23T05:50:07;119;102;60
66155;PMS5003;52957;50.848;20.656;2024-03-23T06:00:19;119;102;60
66155;PMS5003;52957;50.848;20.656;2024-03-23T06:10:10;137;123;57
66155;PMS5003;52957;50.848;20.656;2024-03-23T06:20:13;137;123;57
66155;PMS5003;52957;50.848;20.656;2024-03-23T06:30:09;137;123;57
66155;PMS5003;52957;50.848;20.656;2024-03-23T06:40:17;190;164;94
66155;PMS5003;52957;50.848;20.656;2024-03-23T06:50:14;190;164;94
66155;PMS5003;52957;50.848;20.656;2024-03-23T07:00:20;190;164;94
66155;PMS5003;52957;50.848;20.656;2024-03-23T07:10:07;121;89;44
66155;PMS5003;52957;50.848;20.656;2024-03-23T07:20:02;121;89;44
66155;PMS5003;52957;50.848;20.656;2024-03-23T07:30:06;121;89;44
66155;PMS5003;52957;50.848;20.656;2024-03-23T07:40:17;82;73;38
66155;PMS5003;52957;50.848;20.656;2024-03-23T07:50:12;82;73;38
66155;PMS5003;52957;50.848;20.656;2024-03-23T08:00:08;82;73;38
66155;PMS5003;52957;50.848;20.656;2024-03-23T08:10:06;139;118;60
66155;PMS5003;52957;50.848;20.656;2024-03-23T08:20:02;139;118;60
66155;PMS5003;52957;50.848;20.656;2024-03-23T08:30:16;139;118;60
66155;PMS5003;52957;50.848;20.656;2024-03-23T08:40:17;72;69;39
66155;PMS5003;52957;50.848;20.656;2024-03-23T08:50:07;72;69;39
66155;PMS5003;52957;50.848;20.656;2024-03-23T09:00:06;72;69;39
66155;PMS5003;52957;50.848;20.656;2024-03-23T09:10:02;102;86;49
66155;PMS5003;52957;50.848;20.656;2024-03-23T09:20:12;102;86;49
66155;PMS5003;52957;50.848;20.656;2024-03-23T09:30:02;102;86;49
66155;PMS5003;52957;50.848;20.656;2024-03-23T09:40:14;81;75;37
66155;PMS5003;52957;50.848;20.656;2024-03-23T09:50:02;81;75;37
66155;PMS5003;52957;50.848;20.656;2024-03-23T10:00:13;81;75;37
66155;PMS5003;52957;50.848;20.656;2024-03-23T10:20:20;72;66;38
66155;PMS5003;52957;50.848;20.656;2024-03-23T10:30:08;72;66;38
66155;PMS5003;52957;50.848;20.656;2024-03-23T10:40:16;82;73;36
66155;PMS5003;52957;50.848;20.656;2024-03-23T10:50:11;82;73;36
66155;PMS5003;52957;50.848;20.656;2024-03-23T11:00:06;82;73;36
66155;PMS5003;52957;50.848;20.656;2024-03-23T11:10:31;59;51;29
66155;PMS5003;52957;50.848;20.656;2024-03-23T11:20:10;59;51;29
66155;PMS5003;52957;50.848;20.656;2024-03-23T11:30:25;59;51;29
66155;PMS5003;52957;50.848;20.656;2024-03-23T11:40:30;59;51;25
66155;PMS5003;52957;50.848;20.656;2024-03-23T11:50:06;59;51;25
66155;PMS5003;52957;50.848;20.656;2024-03-23T12:00:24;59;51;25
66155;PMS5003;52957;50.848;20.656;2024-03-23T12:20:07;53;44;27
66155;PMS5003;52957;50.848;20.656;2024-03-23T12:30:02;53;44;27
66155;PMS5003;52957;50.848;20.656;2024-03-23T12:40:05;50;48;25
66155;PMS5003;52957;50.848;20.656;2024-03-23T12:50:07;50;48;25
66155;PMS5003;52957;50.848;20.656;2024-03-23T13:00:22;50;48;25
66155;PMS5003;52957;50.848;20.656;2024-03-23T13:10:04;38;35;24
66155;PMS5003;52957;50.848;20.656;2024-03-23T13:20:07;38;35;24
66155;PMS5003;52957;50.848;20.656;2024-03-23T13:30:08;38;35;24
66155;PMS5003;52957;50.848;20.656;2024-03-23T13:40:13;48;44;25
66155;PMS5003;52957;50.848;20.656;2024-03-23T13:50:09;48;44;25
66155;PMS5003;52957;50.848;20.656;2024-03-23T14:00:07;48;44;25
66155;PMS5003;52957;50.848;20.656;2024-03-23T14:10:11;37;36;22
66155;PMS5003;52957;50.848;20.656;2024-03-23T14:20:17;37;36;22
66155;PMS5003;52957;50.848;20.656;2024-03-23T14:30:15;37;36;22
66155;PMS5003;52957;50.848;20.656;2024-03-23T14:40:05;60;55;34
66155;PMS5003;52957;50.848;20.656;2024-03-23T14:50:21;60;55;34
66155;PMS5003;52957;50.848;20.656;2024-03-23T15:00:11;60;55;34
66155;PMS5003;52957;50.848;20.656;2024-03-23T15:20:14;62;57;39
66155;PMS5003;52957;50.848;20.656;2024-03-23T15:30:17;62;57;39
66155;PMS5003;52957;50.848;20.656;2024-03-23T15:40:02;62;57;39
66155;PMS5003;52957;50.848;20.656;2024-03-23T15:50:18;41;39;24
66155;PMS5003;52957;50.848;20.656;2024-03-23T16:00:13;41;39;24
66155;PMS5003;52957;50.848;20.656;2024-03-23T16:20:09;61;60;37
66155;PMS5003;52957;50.848;20.656;2024-03-23T16:30:07;61;60;37
66155;PMS5003;52957;50.848;20.656;2024-03-23T16:40:03;61;60;37
66155;PMS5003;52957;50.848;20.656;2024-03-23T16:50:09;27;27;18
66155;PMS5003;52957;50.848;20.656;2024-03-23T17:00:11;27;27;18
66155;PMS5003;52957;50.848;20.656;2024-03-23T17:10:12;27;27;18
66155;PMS5003;52957;50.848;20.656;2024-03-23T17:20:16;26;26;13
66155;PMS5003;52957;50.848;20.656;2024-03-23T17:30:09;26;26;13
66155;PMS5003;52957;50.848;20.656;2024-03-23T17:40:07;26;26;13
66155;PMS5003;52957;50.848;20.656;2024-03-23T17:50:10;147;133;81
66155;PMS5003;52957;50.848;20.656;2024-03-23T18:00:20;147;133;81
66155;PMS5003;52957;50.848;20.656;2024-03-23T18:10:13;147;133;81
66155;PMS5003;52957;50.848;20.656;2024-03-23T18:20:09;32;28;19
66155;PMS5003;52957;50.848;20.656;2024-03-23T18:30:04;32;28;19
66155;PMS5003;52957;50.848;20.656;2024-03-23T18:40:07;32;28;19
66155;PMS5003;52957;50.848;20.656;2024-03-23T18:50:12;21;21;16
66155;PMS5003;52957;50.848;20.656;2024-03-23T19:00:05;21;21;16
66155;PMS5003;52957;50.848;20.656;2024-03-23T19:10:03;21;21;16
66155;PMS5003;52957;50.848;20.656;2024-03-23T19:20:17;34;31;22
66155;PMS5003;52957;50.848;20.656;2024-03-23T19:30:07;34;31;22
66155;PMS5003;52957;50.848;20.656;2024-03-23T19:40:16;34;31;22
66155;PMS5003;52957;50.848;20.656;2024-03-23T19:50:03;43;39;18
66155;PMS5003;52957;50.848;20.656;2024-03-23T20:00:02;43;39;18
66155;PMS5003;52957;50.848;20.656;2024-03-23T20:10:11;43;39;18
66155;PMS5003;52957;50.848;20.656;2024-03-23T20:20:04;41;34;20
66155;PMS5003;52957;50.848;20.656;2024-03-23T20:30:13;41;34;20
66155;PMS5003;52957;50.848;20.656;2024-03-23T20:40:17;41;34;20
66155;PMS5003;52957;50.848;20.656;2024-03-23T20:50:02;32;32;18
66155;PMS5003;52957;50.848;20.656;2024-03-23T21:00:22;32;32;18
66155;PMS5003;52957;50.848;20.656;2024-03-23T21:10:09;32;32;18
66155;PMS5003;52957;50.848;20.656;2024-03-23T21:20:12;40;36;19
66155;PMS5003;52957;50.848;20.656;2024-03-23T21:30:05;40;36;19
66155;PMS5003;52957;50.848;20.656;2024-03-23T21:40:10;40;36;19
66155;PMS5003;52957;50.848;20.656;2024-03-23T21:50:02;82;75;38
66155;PMS5003;52957;50.848;20.656;2024-03-23T22:00:18;82;75;38
66155;PMS5003;52957;50.848;20.656;2024-03-23T22:10:07;82;75;38
66155;PMS5003;52957;50.848;20.656;2024-03-23T22:20:07;38;38;24
66155;PMS5003;52957;50.848;20.656;2024-03-23T22:30:13;38;38;24
66155;PMS5003;52957;50.848;20.656;2024-03-23T22:40:01;38;38;24
66155;PMS5003;52957;50.848;20.656;2024-03-23T22:50:10;35;28;16
66155;PMS5003;52957;50.848;20.656;2024-03-23T23:00:09;35;28;16
66155;PMS5003;52957;50.848;20.656;2024-03-23T23:10:15;20;19;11
66155;PMS5003;52957;50.848;20.656;2024-03-23T23:20:16;20;19;11
66155;PMS5003;52957;50.848;20.656;2024-03-23T23:30:11;20;19;11
66155;PMS5003;52957;50.848;20.656;2024-03-23T23:40:15;32;30;19
66155;PMS5003;52957;50.848;20.656;2024-03-23T23:50:14;32;30;19
